Nearby METAR Reports

 

NZWN - Wellington Intl, New Zealand
Distance from station: E 68km
Updated: 20/01/2018 06:00
Partly cloudy
Partly cloudy
 Wind from NNW
Wind: NNW 26 km/h
Temperature: 21°C
Dew Point: 17°C
Humidity: 78%
Barometer: 1015 hPa
Clouds: Partly cloudy
Visibility: 10 km
Cloud details: Partly cloudy 640 m
2018/01/19 17:00 NZWN 191700Z AUTO 34014KT 9999 SCT021/// 21/17 Q1015 NOSIG
NZCH - Christchurch Int, New Zealand
Distance from station: SSW 269km
Updated: 20/01/2018 06:00
Clear
Clear
 Wind from NE
Wind: NE 7 km/h
Temperature: 16°C
Dew Point: 15°C
Humidity: 94%
Barometer: 1010 hPa
Clouds: Clear
Visibility: 9 km
2018/01/19 17:00 NZCH 191700Z AUTO 05004KT 020V090 9000 NCD 16/15 Q1010 TEMPO TL1800 2000 BR
 
NZAA - Auckland Intl Ar, New Zealand
Distance from station: N 480km
Updated: 20/01/2018 06:00
Partly cloudy
Partly cloudy
 Wind from NNE
Wind: NNE 15 km/h
Temperature: 20°C
Dew Point: 19°C
Humidity: 94%
Barometer: 1017 hPa
Clouds: Partly cloudy
Visibility: 10 km
Cloud details: Partly cloudy 762 m
2018/01/19 17:00 NZAA 191700Z AUTO 03008KT 9999 SCT025/// 20/19 Q1017 NOSIG